sensor_id;sensor_type;location;lat;lon;timestamp;temperature;humidity
7000;DHT22;3540;53.242;10.408;2022-11-10T00:01:03;12.30;99.90
7000;DHT22;3540;53.242;10.408;2022-11-10T00:03:29;12.30;99.90
7000;DHT22;3540;53.242;10.408;2022-11-10T00:05:55;12.30;99.90
7000;DHT22;3540;53.242;10.408;2022-11-10T00:08:20;12.20;99.90
7000;DHT22;3540;53.242;10.408;2022-11-10T00:10:46;12.10;99.90
7000;DHT22;3540;53.242;10.408;2022-11-10T00:13:33;12.10;99.90
7000;DHT22;3540;53.242;10.408;2022-11-10T00:16:02;12.10;99.90
7000;DHT22;3540;53.242;10.408;2022-11-10T00:18:47;12.00;99.90
7000;DHT22;3540;53.242;10.408;2022-11-10T00:21:13;12.00;99.90
7000;DHT22;3540;53.242;10.408;2022-11-10T00:23:40;11.90;99.90
7000;DHT22;3540;53.242;10.408;2022-11-10T00:26:18;11.90;99.90
7000;DHT22;3540;53.242;10.408;2022-11-10T00:28:44;11.90;99.90
7000;DHT22;3540;53.242;10.408;2022-11-10T00:31:11;11.90;99.90
7000;DHT22;3540;53.242;10.408;2022-11-10T00:33:38;11.90;99.90
7000;DHT22;3540;53.242;10.408;2022-11-10T00:36:04;11.90;99.90
7000;DHT22;3540;53.242;10.408;2022-11-10T00:38:30;12.00;99.90
7000;DHT22;3540;53.242;10.408;2022-11-10T00:40:57;12.00;99.90
7000;DHT22;3540;53.242;10.408;2022-11-10T00:43:24;11.90;99.90
7000;DHT22;3540;53.242;10.408;2022-11-10T00:45:49;11.90;99.90
7000;DHT22;3540;53.242;10.408;2022-11-10T00:48:15;11.90;99.90
7000;DHT22;3540;53.242;10.408;2022-11-10T00:50:41;11.90;99.90
7000;DHT22;3540;53.242;10.408;2022-11-10T00:53:06;11.90;99.90
7000;DHT22;3540;53.242;10.408;2022-11-10T00:55:32;11.80;99.90
7000;DHT22;3540;53.242;10.408;2022-11-10T00:57:57;11.80;99.90
7000;DHT22;3540;53.242;10.408;2022-11-10T01:00:23;11.80;99.90
7000;DHT22;3540;53.242;10.408;2022-11-10T01:02:49;11.80;99.90
7000;DHT22;3540;53.242;10.408;2022-11-10T01:05:14;11.80;99.90
7000;DHT22;3540;53.242;10.408;2022-11-10T01:07:40;11.70;99.90
7000;DHT22;3540;53.242;10.408;2022-11-10T01:10:06;11.70;99.90
7000;DHT22;3540;53.242;10.408;2022-11-10T01:12:31;11.70;99.90
7000;DHT22;3540;53.242;10.408;2022-11-10T01:14:57;11.70;99.90
7000;DHT22;3540;53.242;10.408;2022-11-10T01:17:23;11.60;99.90
7000;DHT22;3540;53.242;10.408;2022-11-10T01:19:49;11.60;99.90
7000;DHT22;3540;53.242;10.408;2022-11-10T01:22:14;11.60;99.90
7000;DHT22;3540;53.242;10.408;2022-11-10T01:24:40;11.60;99.90
7000;DHT22;3540;53.242;10.408;2022-11-10T01:27:05;11.50;99.90
7000;DHT22;3540;53.242;10.408;2022-11-10T01:29:31;11.40;99.90
7000;DHT22;3540;53.242;10.408;2022-11-10T01:31:57;11.40;99.90
7000;DHT22;3540;53.242;10.408;2022-11-10T01:34:22;11.40;99.90
7000;DHT22;3540;53.242;10.408;2022-11-10T01:36:48;11.40;99.90
7000;DHT22;3540;53.242;10.408;2022-11-10T01:39:13;11.30;99.90
7000;DHT22;3540;53.242;10.408;2022-11-10T01:41:39;11.30;99.90
7000;DHT22;3540;53.242;10.408;2022-11-10T01:44:22;11.30;99.90
7000;DHT22;3540;53.242;10.408;2022-11-10T01:46:48;11.30;99.90
7000;DHT22;3540;53.242;10.408;2022-11-10T01:49:17;11.20;99.90
7000;DHT22;3540;53.242;10.408;2022-11-10T01:54:22;11.20;99.90
7000;DHT22;3540;53.242;10.408;2022-11-10T01:56:52;11.20;99.90
7000;DHT22;3540;53.242;10.408;2022-11-10T01:59:25;11.20;99.90
7000;DHT22;3540;53.242;10.408;2022-11-10T02:01:53;11.20;99.90
7000;DHT22;3540;53.242;10.408;2022-11-10T02:04:21;11.10;99.90
7000;DHT22;3540;53.242;10.408;2022-11-10T02:06:48;11.10;99.90
7000;DHT22;3540;53.242;10.408;2022-11-10T02:09:14;11.10;99.90
7000;DHT22;3540;53.242;10.408;2022-11-10T02:11:41;11.10;99.90
7000;DHT22;3540;53.242;10.408;2022-11-10T02:14:08;11.00;99.90
7000;DHT22;3540;53.242;10.408;2022-11-10T02:16:35;11.00;99.90
7000;DHT22;3540;53.242;10.408;2022-11-10T02:19:30;10.90;99.90
7000;DHT22;3540;53.242;10.408;2022-11-10T02:22:03;10.90;99.90
7000;DHT22;3540;53.242;10.408;2022-11-10T02:24:28;11.00;99.90
7000;DHT22;3540;53.242;10.408;2022-11-10T02:26:55;11.00;99.90
7000;DHT22;3540;53.242;10.408;2022-11-10T02:29:21;10.90;99.90
7000;DHT22;3540;53.242;10.408;2022-11-10T02:31:48;10.90;99.90
7000;DHT22;3540;53.242;10.408;2022-11-10T02:34:13;10.80;99.90
7000;DHT22;3540;53.242;10.408;2022-11-10T02:36:39;10.90;99.90
7000;DHT22;3540;53.242;10.408;2022-11-10T02:39:05;10.90;99.90
7000;DHT22;3540;53.242;10.408;2022-11-10T02:41:30;10.80;99.90
7000;DHT22;3540;53.242;10.408;2022-11-10T02:43:56;10.80;99.90
7000;DHT22;3540;53.242;10.408;2022-11-10T02:46:22;10.80;99.90
7000;DHT22;3540;53.242;10.408;2022-11-10T02:48:48;10.80;99.90
7000;DHT22;3540;53.242;10.408;2022-11-10T02:51:14;10.80;99.90
7000;DHT22;3540;53.242;10.408;2022-11-10T02:53:39;10.80;99.90
7000;DHT22;3540;53.242;10.408;2022-11-10T02:56:05;10.80;99.90
7000;DHT22;3540;53.242;10.408;2022-11-10T02:58:31;10.90;99.90
7000;DHT22;3540;53.242;10.408;2022-11-10T03:00:57;10.80;99.90
7000;DHT22;3540;53.242;10.408;2022-11-10T03:03:22;10.80;99.90
7000;DHT22;3540;53.242;10.408;2022-11-10T03:05:48;10.80;99.90
7000;DHT22;3540;53.242;10.408;2022-11-10T03:08:14;10.70;99.90
7000;DHT22;3540;53.242;10.408;2022-11-10T03:10:39;10.60;99.90
7000;DHT22;3540;53.242;10.408;2022-11-10T03:13:05;10.60;99.90
7000;DHT22;3540;53.242;10.408;2022-11-10T03:15:31;10.60;99.90
7000;DHT22;3540;53.242;10.408;2022-11-10T03:18:02;10.50;99.90
7000;DHT22;3540;53.242;10.408;2022-11-10T03:20:28;10.50;99.90
7000;DHT22;3540;53.242;10.408;2022-11-10T03:22:59;10.50;99.90
7000;DHT22;3540;53.242;10.408;2022-11-10T03:25:25;10.50;99.90
7000;DHT22;3540;53.242;10.408;2022-11-10T03:27:50;10.50;99.90
7000;DHT22;3540;53.242;10.408;2022-11-10T03:30:16;10.40;99.90
7000;DHT22;3540;53.242;10.408;2022-11-10T03:32:42;10.40;99.90
7000;DHT22;3540;53.242;10.408;2022-11-10T03:35:07;10.40;99.90
7000;DHT22;3540;53.242;10.408;2022-11-10T03:37:33;10.40;99.90
7000;DHT22;3540;53.242;10.408;2022-11-10T03:39:59;10.30;99.90
7000;DHT22;3540;53.242;10.408;2022-11-10T03:42:24;10.30;99.90
7000;DHT22;3540;53.242;10.408;2022-11-10T03:44:50;10.30;99.90
7000;DHT22;3540;53.242;10.408;2022-11-10T03:47:16;10.20;99.90
7000;DHT22;3540;53.242;10.408;2022-11-10T03:49:41;10.20;99.90
7000;DHT22;3540;53.242;10.408;2022-11-10T03:52:07;10.20;99.90
7000;DHT22;3540;53.242;10.408;2022-11-10T03:54:33;10.10;99.90
7000;DHT22;3540;53.242;10.408;2022-11-10T03:56:58;10.20;99.90
7000;DHT22;3540;53.242;10.408;2022-11-10T03:59:24;10.30;99.90
7000;DHT22;3540;53.242;10.408;2022-11-10T04:01:49;10.30;99.90
7000;DHT22;3540;53.242;10.408;2022-11-10T04:04:15;10.30;99.90
7000;DHT22;3540;53.242;10.408;2022-11-10T04:06:59;10.30;99.90
7000;DHT22;3540;53.242;10.408;2022-11-10T04:09:43;10.40;99.90
7000;DHT22;3540;53.242;10.408;2022-11-10T04:12:09;10.40;99.90
7000;DHT22;3540;53.242;10.408;2022-11-10T04:14:53;10.40;99.90
7000;DHT22;3540;53.242;10.408;2022-11-10T04:17:37;10.40;99.90
7000;DHT22;3540;53.242;10.408;2022-11-10T04:20:03;10.50;99.90
7000;DHT22;3540;53.242;10.408;2022-11-10T04:22:29;10.50;99.90
7000;DHT22;3540;53.242;10.408;2022-11-10T04:25:13;10.50;99.90
7000;DHT22;3540;53.242;10.408;2022-11-10T04:27:39;10.60;99.90
7000;DHT22;3540;53.242;10.408;2022-11-10T04:30:05;10.70;99.90
7000;DHT22;3540;53.242;10.408;2022-11-10T04:32:31;10.70;99.90
7000;DHT22;3540;53.242;10.408;2022-11-10T04:34:56;10.70;99.90
7000;DHT22;3540;53.242;10.408;2022-11-10T04:37:22;10.70;99.90
7000;DHT22;3540;53.242;10.408;2022-11-10T04:39:47;10.70;99.90
7000;DHT22;3540;53.242;10.408;2022-11-10T04:42:13;10.70;99.90
7000;DHT22;3540;53.242;10.408;2022-11-10T04:44:38;10.80;99.90
7000;DHT22;3540;53.242;10.408;2022-11-10T04:47:04;10.70;99.90
7000;DHT22;3540;53.242;10.408;2022-11-10T04:49:30;10.70;99.90
7000;DHT22;3540;53.242;10.408;2022-11-10T04:51:55;10.70;99.90
7000;DHT22;3540;53.242;10.408;2022-11-10T04:54:21;10.70;99.90
7000;DHT22;3540;53.242;10.408;2022-11-10T04:56:47;10.70;99.90
7000;DHT22;3540;53.242;10.408;2022-11-10T04:59:12;10.70;99.90
7000;DHT22;3540;53.242;10.408;2022-11-10T05:01:38;10.70;99.90
7000;DHT22;3540;53.242;10.408;2022-11-10T05:04:03;10.70;99.90
7000;DHT22;3540;53.242;10.408;2022-11-10T05:06:30;10.70;99.90
7000;DHT22;3540;53.242;10.408;2022-11-10T05:08:55;10.70;99.90
7000;DHT22;3540;53.242;10.408;2022-11-10T05:11:21;10.60;99.90
7000;DHT22;3540;53.242;10.408;2022-11-10T05:13:47;10.60;99.90
7000;DHT22;3540;53.242;10.408;2022-11-10T05:16:13;10.60;99.90
7000;DHT22;3540;53.242;10.408;2022-11-10T05:18:39;10.60;99.90
7000;DHT22;3540;53.242;10.408;2022-11-10T05:21:05;10.50;99.90
7000;DHT22;3540;53.242;10.408;2022-11-10T05:23:30;10.50;99.90
7000;DHT22;3540;53.242;10.408;2022-11-10T05:28:34;10.30;99.90
7000;DHT22;3540;53.242;10.408;2022-11-10T05:31:00;10.30;99.90
7000;DHT22;3540;53.242;10.408;2022-11-10T05:33:26;10.30;99.90
7000;DHT22;3540;53.242;10.408;2022-11-10T05:35:51;10.20;99.90
7000;DHT22;3540;53.242;10.408;2022-11-10T05:38:17;10.20;99.90
7000;DHT22;3540;53.242;10.408;2022-11-10T05:40:43;10.20;99.90
7000;DHT22;3540;53.242;10.408;2022-11-10T05:43:09;10.10;99.90
7000;DHT22;3540;53.242;10.408;2022-11-10T05:45:35;10.10;99.90
7000;DHT22;3540;53.242;10.408;2022-11-10T05:48:01;10.00;99.90
7000;DHT22;3540;53.242;10.408;2022-11-10T05:50:27;10.00;99.90
7000;DHT22;3540;53.242;10.408;2022-11-10T05:52:54;10.00;99.90
7000;DHT22;3540;53.242;10.408;2022-11-10T05:55:22;9.90;99.90
7000;DHT22;3540;53.242;10.408;2022-11-10T05:57:49;9.90;99.90
7000;DHT22;3540;53.242;10.408;2022-11-10T06:00:18;9.90;99.90
7000;DHT22;3540;53.242;10.408;2022-11-10T06:02:58;9.90;99.90
7000;DHT22;3540;53.242;10.408;2022-11-10T06:05:24;9.90;99.90
7000;DHT22;3540;53.242;10.408;2022-11-10T06:07:50;9.80;99.90
7000;DHT22;3540;53.242;10.408;2022-11-10T06:10:16;9.80;99.90
7000;DHT22;3540;53.242;10.408;2022-11-10T06:12:42;9.80;99.90
7000;DHT22;3540;53.242;10.408;2022-11-10T06:15:08;9.80;99.90
7000;DHT22;3540;53.242;10.408;2022-11-10T06:17:36;9.80;99.90
7000;DHT22;3540;53.242;10.408;2022-11-10T06:20:02;9.70;99.90
7000;DHT22;3540;53.242;10.408;2022-11-10T06:22:28;9.70;99.90
7000;DHT22;3540;53.242;10.408;2022-11-10T06:24:53;9.60;99.90
7000;DHT22;3540;53.242;10.408;2022-11-10T06:27:19;9.60;99.90
7000;DHT22;3540;53.242;10.408;2022-11-10T06:29:45;9.50;99.90
7000;DHT22;3540;53.242;10.408;2022-11-10T06:32:10;9.50;99.90
7000;DHT22;3540;53.242;10.408;2022-11-10T06:34:36;9.50;99.90
7000;DHT22;3540;53.242;10.408;2022-11-10T06:37:02;9.50;99.90
7000;DHT22;3540;53.242;10.408;2022-11-10T06:39:27;9.50;99.90
7000;DHT22;3540;53.242;10.408;2022-11-10T06:41:53;9.50;99.90
7000;DHT22;3540;53.242;10.408;2022-11-10T06:44:19;9.50;99.90
7000;DHT22;3540;53.242;10.408;2022-11-10T06:46:44;9.50;99.90
7000;DHT22;3540;53.242;10.408;2022-11-10T06:49:10;9.40;99.90
7000;DHT22;3540;53.242;10.408;2022-11-10T06:51:36;9.40;99.90
7000;DHT22;3540;53.242;10.408;2022-11-10T06:54:01;9.50;99.90
7000;DHT22;3540;53.242;10.408;2022-11-10T06:56:27;9.50;99.90
7000;DHT22;3540;53.242;10.408;2022-11-10T06:58:53;9.50;99.90
7000;DHT22;3540;53.242;10.408;2022-11-10T07:01:18;9.50;99.90
7000;DHT22;3540;53.242;10.408;2022-11-10T07:03:45;9.60;99.90
7000;DHT22;3540;53.242;10.408;2022-11-10T07:06:11;9.60;99.90
7000;DHT22;3540;53.242;10.408;2022-11-10T07:08:37;9.60;99.90
7000;DHT22;3540;53.242;10.408;2022-11-10T07:11:02;9.60;99.90
7000;DHT22;3540;53.242;10.408;2022-11-10T07:13:28;9.60;99.90
7000;DHT22;3540;53.242;10.408;2022-11-10T07:15:53;9.70;99.90
7000;DHT22;3540;53.242;10.408;2022-11-10T07:18:19;9.70;99.90
7000;DHT22;3540;53.242;10.408;2022-11-10T07:20:45;9.80;99.90
7000;DHT22;3540;53.242;10.408;2022-11-10T07:23:11;9.70;99.90
7000;DHT22;3540;53.242;10.408;2022-11-10T07:25:37;9.70;99.90
7000;DHT22;3540;53.242;10.408;2022-11-10T07:28:05;9.70;99.90
7000;DHT22;3540;53.242;10.408;2022-11-10T07:30:32;9.70;99.90
7000;DHT22;3540;53.242;10.408;2022-11-10T07:32:59;9.70;99.90
7000;DHT22;3540;53.242;10.408;2022-11-10T07:35:25;9.80;99.90
7000;DHT22;3540;53.242;10.408;2022-11-10T07:37:56;9.70;99.90
7000;DHT22;3540;53.242;10.408;2022-11-10T07:40:22;9.80;99.90
7000;DHT22;3540;53.242;10.408;2022-11-10T07:42:48;9.80;99.90
7000;DHT22;3540;53.242;10.408;2022-11-10T07:45:14;9.80;99.90
7000;DHT22;3540;53.242;10.408;2022-11-10T07:47:39;9.80;99.90
7000;DHT22;3540;53.242;10.408;2022-11-10T07:50:05;9.80;99.90
7000;DHT22;3540;53.242;10.408;2022-11-10T07:52:31;9.90;99.90
7000;DHT22;3540;53.242;10.408;2022-11-10T07:54:57;10.00;99.90
7000;DHT22;3540;53.242;10.408;2022-11-10T07:57:23;10.10;99.90
7000;DHT22;3540;53.242;10.408;2022-11-10T07:59:48;10.10;99.90
7000;DHT22;3540;53.242;10.408;2022-11-10T08:02:14;10.10;99.90
7000;DHT22;3540;53.242;10.408;2022-11-10T08:04:39;10.10;99.90
7000;DHT22;3540;53.242;10.408;2022-11-10T08:07:05;10.20;99.90
7000;DHT22;3540;53.242;10.408;2022-11-10T08:09:31;10.30;99.90
7000;DHT22;3540;53.242;10.408;2022-11-10T08:11:56;10.40;99.90
7000;DHT22;3540;53.242;10.408;2022-11-10T08:14:22;10.40;99.90
7000;DHT22;3540;53.242;10.408;2022-11-10T08:16:47;10.50;99.90
7000;DHT22;3540;53.242;10.408;2022-11-10T08:19:14;10.50;99.90
7000;DHT22;3540;53.242;10.408;2022-11-10T08:21:40;10.50;99.90
7000;DHT22;3540;53.242;10.408;2022-11-10T08:24:06;10.50;99.90
7000;DHT22;3540;53.242;10.408;2022-11-10T08:26:32;10.50;99.90
7000;DHT22;3540;53.242;10.408;2022-11-10T08:28:57;10.50;99.90
7000;DHT22;3540;53.242;10.408;2022-11-10T08:31:23;10.50;99.90
7000;DHT22;3540;53.242;10.408;2022-11-10T08:33:49;10.50;99.90
7000;DHT22;3540;53.242;10.408;2022-11-10T08:36:14;10.60;99.90
7000;DHT22;3540;53.242;10.408;2022-11-10T08:38:40;10.70;99.90
7000;DHT22;3540;53.242;10.408;2022-11-10T08:41:05;10.70;99.90
7000;DHT22;3540;53.242;10.408;2022-11-10T08:43:31;10.70;99.90
7000;DHT22;3540;53.242;10.408;2022-11-10T08:45:57;10.70;99.90
7000;DHT22;3540;53.242;10.408;2022-11-10T08:48:22;10.70;99.90
7000;DHT22;3540;53.242;10.408;2022-11-10T08:50:49;10.70;99.90
7000;DHT22;3540;53.242;10.408;2022-11-10T08:53:20;10.70;99.90
7000;DHT22;3540;53.242;10.408;2022-11-10T08:55:47;10.80;99.90
7000;DHT22;3540;53.242;10.408;2022-11-10T08:58:18;10.90;99.90
7000;DHT22;3540;53.242;10.408;2022-11-10T09:00:44;10.90;99.90
7000;DHT22;3540;53.242;10.408;2022-11-10T09:03:13;10.90;99.90
7000;DHT22;3540;53.242;10.408;2022-11-10T09:05:39;11.00;99.90
7000;DHT22;3540;53.242;10.408;2022-11-10T09:08:05;11.10;99.90
7000;DHT22;3540;53.242;10.408;2022-11-10T09:10:33;11.20;99.90
7000;DHT22;3540;53.242;10.408;2022-11-10T09:13:00;11.20;99.90
7000;DHT22;3540;53.242;10.408;2022-11-10T09:15:26;11.20;99.90
7000;DHT22;3540;53.242;10.408;2022-11-10T09:17:51;11.20;99.90
7000;DHT22;3540;53.242;10.408;2022-11-10T09:20:17;11.10;99.90
7000;DHT22;3540;53.242;10.408;2022-11-10T09:22:43;11.10;99.90
7000;DHT22;3540;53.242;10.408;2022-11-10T09:25:09;11.20;99.90
7000;DHT22;3540;53.242;10.408;2022-11-10T09:27:36;11.20;99.90
7000;DHT22;3540;53.242;10.408;2022-11-10T09:30:03;11.30;99.90
7000;DHT22;3540;53.242;10.408;2022-11-10T09:32:29;11.30;99.90
7000;DHT22;3540;53.242;10.408;2022-11-10T09:34:56;11.30;99.90
7000;DHT22;3540;53.242;10.408;2022-11-10T09:37:22;11.40;99.90
7000;DHT22;3540;53.242;10.408;2022-11-10T09:39:48;11.40;99.90
7000;DHT22;3540;53.242;10.408;2022-11-10T09:42:37;11.30;99.90
7000;DHT22;3540;53.242;10.408;2022-11-10T09:47:52;11.40;99.90
7000;DHT22;3540;53.242;10.408;2022-11-10T09:52:59;11.50;99.90
7000;DHT22;3540;53.242;10.408;2022-11-10T09:55:37;11.60;99.90
7000;DHT22;3540;53.242;10.408;2022-11-10T09:58:03;11.60;99.90
7000;DHT22;3540;53.242;10.408;2022-11-10T10:00:30;11.70;99.90
7000;DHT22;3540;53.242;10.408;2022-11-10T10:03:04;11.70;99.90
7000;DHT22;3540;53.242;10.408;2022-11-10T10:05:34;11.80;99.90
7000;DHT22;3540;53.242;10.408;2022-11-10T10:08:10;11.80;99.90
7000;DHT22;3540;53.242;10.408;2022-11-10T10:21:53;12.00;99.90
7000;DHT22;3540;53.242;10.408;2022-11-10T10:24:26;12.10;99.90
7000;DHT22;3540;53.242;10.408;2022-11-10T10:26:58;12.10;99.90
7000;DHT22;3540;53.242;10.408;2022-11-10T10:29:31;12.20;99.90
7000;DHT22;3540;53.242;10.408;2022-11-10T10:32:00;12.40;99.90
7000;DHT22;3540;53.242;10.408;2022-11-10T10:34:30;12.50;99.90
7000;DHT22;3540;53.242;10.408;2022-11-10T10:36:59;12.50;99.90
7000;DHT22;3540;53.242;10.408;2022-11-10T10:39:29;12.60;99.90
7000;DHT22;3540;53.242;10.408;2022-11-10T10:41:56;12.70;99.90
7000;DHT22;3540;53.242;10.408;2022-11-10T10:44:22;12.60;99.90
7000;DHT22;3540;53.242;10.408;2022-11-10T10:46:59;12.70;99.90
7000;DHT22;3540;53.242;10.408;2022-11-10T10:49:27;12.70;99.90
7000;DHT22;3540;53.242;10.408;2022-11-10T10:52:13;12.70;99.90
7000;DHT22;3540;53.242;10.408;2022-11-10T10:54:39;12.70;99.90
7000;DHT22;3540;53.242;10.408;2022-11-10T10:57:21;12.70;99.90
7000;DHT22;3540;53.242;10.408;2022-11-10T10:59:48;12.80;99.90
7000;DHT22;3540;53.242;10.408;2022-11-10T11:02:27;12.80;99.90
7000;DHT22;3540;53.242;10.408;2022-11-10T11:05:23;12.70;99.90
7000;DHT22;3540;53.242;10.408;2022-11-10T11:07:56;12.70;99.90
7000;DHT22;3540;53.242;10.408;2022-11-10T11:10:24;12.80;99.90
7000;DHT22;3540;53.242;10.408;2022-11-10T11:12:50;12.90;99.90
7000;DHT22;3540;53.242;10.408;2022-11-10T11:15:27;13.00;99.90
7000;DHT22;3540;53.242;10.408;2022-11-10T11:18:02;13.20;99.90
7000;DHT22;3540;53.242;10.408;2022-11-10T11:23:50;13.20;99.90
7000;DHT22;3540;53.242;10.408;2022-11-10T11:26:21;13.20;99.90
7000;DHT22;3540;53.242;10.408;2022-11-10T11:29:04;13.10;99.90
7000;DHT22;3540;53.242;10.408;2022-11-10T11:36:59;13.20;99.90
7000;DHT22;3540;53.242;10.408;2022-11-10T11:56:47;13.50;99.90
7000;DHT22;3540;53.242;10.408;2022-11-10T11:58:51;13.70;99.90
7000;DHT22;3540;53.242;10.408;2022-11-10T12:07:09;13.80;99.90
7000;DHT22;3540;53.242;10.408;2022-11-10T12:09:44;13.70;99.90
7000;DHT22;3540;53.242;10.408;2022-11-10T12:15:48;13.60;99.90
7000;DHT22;3540;53.242;10.408;2022-11-10T12:18:34;13.60;99.90
7000;DHT22;3540;53.242;10.408;2022-11-10T12:22:03;13.60;99.90
7000;DHT22;3540;53.242;10.408;2022-11-10T12:27:10;13.60;99.90
7000;DHT22;3540;53.242;10.408;2022-11-10T12:29:40;13.60;99.90
7000;DHT22;3540;53.242;10.408;2022-11-10T12:32:24;13.50;99.90
7000;DHT22;3540;53.242;10.408;2022-11-10T12:35:01;13.50;99.90
7000;DHT22;3540;53.242;10.408;2022-11-10T12:37:37;13.40;99.90
7000;DHT22;3540;53.242;10.408;2022-11-10T12:40:14;13.40;99.90
7000;DHT22;3540;53.242;10.408;2022-11-10T12:42:43;13.50;99.90
7000;DHT22;3540;53.242;10.408;2022-11-10T12:45:36;13.70;99.90
7000;DHT22;3540;53.242;10.408;2022-11-10T12:48:04;13.90;99.90
7000;DHT22;3540;53.242;10.408;2022-11-10T12:53:04;13.90;99.90
7000;DHT22;3540;53.242;10.408;2022-11-10T12:55:41;13.90;99.90
7000;DHT22;3540;53.242;10.408;2022-11-10T12:58:11;14.00;99.90
7000;DHT22;3540;53.242;10.408;2022-11-10T13:00:59;14.10;99.90
7000;DHT22;3540;53.242;10.408;2022-11-10T13:03:31;14.00;99.90
7000;DHT22;3540;53.242;10.408;2022-11-10T13:06:00;14.10;99.90
7000;DHT22;3540;53.242;10.408;2022-11-10T13:13:59;14.20;99.90
7000;DHT22;3540;53.242;10.408;2022-11-10T13:19:07;14.40;99.90
7000;DHT22;3540;53.242;10.408;2022-11-10T13:22:08;14.40;99.90
7000;DHT22;3540;53.242;10.408;2022-11-10T13:24:36;14.40;99.90
7000;DHT22;3540;53.242;10.408;2022-11-10T13:27:08;14.20;99.90
7000;DHT22;3540;53.242;10.408;2022-11-10T13:34:50;14.20;99.90
7000;DHT22;3540;53.242;10.408;2022-11-10T13:50:52;14.10;99.90
7000;DHT22;3540;53.242;10.408;2022-11-10T13:56:36;14.00;99.90
7000;DHT22;3540;53.242;10.408;2022-11-10T13:59:24;14.00;99.90
7000;DHT22;3540;53.242;10.408;2022-11-10T14:01:50;14.00;99.90
7000;DHT22;3540;53.242;10.408;2022-11-10T14:07:03;13.90;99.90
7000;DHT22;3540;53.242;10.408;2022-11-10T14:09:37;13.90;99.90
7000;DHT22;3540;53.242;10.408;2022-11-10T14:12:27;13.90;99.90
7000;DHT22;3540;53.242;10.408;2022-11-10T14:15:10;13.90;99.90
7000;DHT22;3540;53.242;10.408;2022-11-10T14:17:52;13.90;99.90
7000;DHT22;3540;53.242;10.408;2022-11-10T14:20:40;13.80;99.90
7000;DHT22;3540;53.242;10.408;2022-11-10T14:23:17;13.90;99.90
7000;DHT22;3540;53.242;10.408;2022-11-10T14:25:57;13.80;99.90
7000;DHT22;3540;53.242;10.408;2022-11-10T14:28:31;13.80;99.90
7000;DHT22;3540;53.242;10.408;2022-11-10T14:30:57;13.80;99.90
7000;DHT22;3540;53.242;10.408;2022-11-10T14:33:24;13.90;99.90
7000;DHT22;3540;53.242;10.408;2022-11-10T14:36:05;13.80;99.90
7000;DHT22;3540;53.242;10.408;2022-11-10T14:38:33;13.80;99.90
7000;DHT22;3540;53.242;10.408;2022-11-10T14:41:03;13.80;99.90
7000;DHT22;3540;53.242;10.408;2022-11-10T14:43:35;13.80;99.90
7000;DHT22;3540;53.242;10.408;2022-11-10T14:46:02;13.90;99.90
7000;DHT22;3540;53.242;10.408;2022-11-10T14:48:33;13.80;99.90
7000;DHT22;3540;53.242;10.408;2022-11-10T14:53:37;13.80;99.90
7000;DHT22;3540;53.242;10.408;2022-11-10T14:56:05;13.70;99.90
7000;DHT22;3540;53.242;10.408;2022-11-10T14:58:36;13.70;99.90
7000;DHT22;3540;53.242;10.408;2022-11-10T15:01:04;13.80;99.90
7000;DHT22;3540;53.242;10.408;2022-11-10T15:03:40;13.70;99.90
7000;DHT22;3540;53.242;10.408;2022-11-10T15:06:10;13.70;99.90
7000;DHT22;3540;53.242;10.408;2022-11-10T15:08:37;13.70;99.90
7000;DHT22;3540;53.242;10.408;2022-11-10T15:11:04;13.60;99.90
7000;DHT22;3540;53.242;10.408;2022-11-10T15:18:47;13.60;99.90
7000;DHT22;3540;53.242;10.408;2022-11-10T15:21:16;13.60;99.90
7000;DHT22;3540;53.242;10.408;2022-11-10T15:23:45;13.60;99.90
7000;DHT22;3540;53.242;10.408;2022-11-10T15:26:28;13.50;99.90
7000;DHT22;3540;53.242;10.408;2022-11-10T15:28:57;13.50;99.90
7000;DHT22;3540;53.242;10.408;2022-11-10T15:31:26;13.50;99.90
7000;DHT22;3540;53.242;10.408;2022-11-10T15:33:58;13.60;99.90
7000;DHT22;3540;53.242;10.408;2022-11-10T15:36:31;13.60;99.90
7000;DHT22;3540;53.242;10.408;2022-11-10T15:41:47;13.60;99.90
7000;DHT22;3540;53.242;10.408;2022-11-10T15:44:20;13.60;99.90
7000;DHT22;3540;53.242;10.408;2022-11-10T15:46:49;13.60;99.90
7000;DHT22;3540;53.242;10.408;2022-11-10T15:49:34;13.60;99.90
7000;DHT22;3540;53.242;10.408;2022-11-10T15:52:15;13.60;99.90
7000;DHT22;3540;53.242;10.408;2022-11-10T15:54:42;13.70;99.90
7000;DHT22;3540;53.242;10.408;2022-11-10T15:57:13;13.70;99.90
7000;DHT22;3540;53.242;10.408;2022-11-10T15:59:39;13.70;99.90
7000;DHT22;3540;53.242;10.408;2022-11-10T16:02:21;13.70;99.90
7000;DHT22;3540;53.242;10.408;2022-11-10T16:04:49;13.80;99.90
7000;DHT22;3540;53.242;10.408;2022-11-10T16:07:15;13.70;99.90
7000;DHT22;3540;53.242;10.408;2022-11-10T16:09:41;13.70;99.90
7000;DHT22;3540;53.242;10.408;2022-11-10T16:12:18;13.70;99.90
7000;DHT22;3540;53.242;10.408;2022-11-10T16:14:47;13.70;99.90
7000;DHT22;3540;53.242;10.408;2022-11-10T16:17:14;13.70;99.90
7000;DHT22;3540;53.242;10.408;2022-11-10T16:19:40;13.70;99.90
7000;DHT22;3540;53.242;10.408;2022-11-10T16:22:09;13.60;99.90
7000;DHT22;3540;53.242;10.408;2022-11-10T16:24:36;13.60;99.90
7000;DHT22;3540;53.242;10.408;2022-11-10T16:27:04;13.60;99.90
7000;DHT22;3540;53.242;10.408;2022-11-10T16:29:31;13.60;99.90
7000;DHT22;3540;53.242;10.408;2022-11-10T16:31:57;13.60;99.90
7000;DHT22;3540;53.242;10.408;2022-11-10T16:34:23;13.60;99.90
7000;DHT22;3540;53.242;10.408;2022-11-10T16:36:48;13.60;99.90
7000;DHT22;3540;53.242;10.408;2022-11-10T16:39:16;13.60;99.90
7000;DHT22;3540;53.242;10.408;2022-11-10T16:41:42;13.60;99.90
7000;DHT22;3540;53.242;10.408;2022-11-10T16:44:10;13.50;99.90
7000;DHT22;3540;53.242;10.408;2022-11-10T16:46:36;13.50;99.90
7000;DHT22;3540;53.242;10.408;2022-11-10T16:49:04;13.50;99.90
7000;DHT22;3540;53.242;10.408;2022-11-10T16:51:38;13.50;99.90
7000;DHT22;3540;53.242;10.408;2022-11-10T16:54:04;13.50;99.90
7000;DHT22;3540;53.242;10.408;2022-11-10T16:56:30;13.40;99.90
7000;DHT22;3540;53.242;10.408;2022-11-10T16:58:55;13.40;99.90
7000;DHT22;3540;53.242;10.408;2022-11-10T17:01:24;13.40;99.90
7000;DHT22;3540;53.242;10.408;2022-11-10T17:03:54;13.40;99.90
7000;DHT22;3540;53.242;10.408;2022-11-10T17:06:22;13.40;99.90
7000;DHT22;3540;53.242;10.408;2022-11-10T17:08:49;13.50;99.90
7000;DHT22;3540;53.242;10.408;2022-11-10T17:11:16;13.50;99.90
7000;DHT22;3540;53.242;10.408;2022-11-10T17:13:42;13.50;99.90
7000;DHT22;3540;53.242;10.408;2022-11-10T17:18:43;13.50;99.90
7000;DHT22;3540;53.242;10.408;2022-11-10T17:21:11;13.50;99.90
7000;DHT22;3540;53.242;10.408;2022-11-10T17:23:37;13.50;99.90
7000;DHT22;3540;53.242;10.408;2022-11-10T17:26:04;13.50;99.90
7000;DHT22;3540;53.242;10.408;2022-11-10T17:28:29;13.50;99.90
7000;DHT22;3540;53.242;10.408;2022-11-10T17:30:55;13.50;99.90
7000;DHT22;3540;53.242;10.408;2022-11-10T17:33:22;13.40;99.90
7000;DHT22;3540;53.242;10.408;2022-11-10T17:35:49;13.50;99.90
7000;DHT22;3540;53.242;10.408;2022-11-10T17:38:23;13.50;99.90
7000;DHT22;3540;53.242;10.408;2022-11-10T17:40:50;13.50;99.90
7000;DHT22;3540;53.242;10.408;2022-11-10T17:43:16;13.50;99.90
7000;DHT22;3540;53.242;10.408;2022-11-10T17:45:42;13.50;99.90